Terminal Aerodrome Forecast
Issued by NWS

Home | Current Version | Previous Version | Text Only | Print | Product List | Glossary On
Versions: 1 2 3 4 5 6 7 8 9 10 11 12 13 14 15 16 17 18 19 20 21 22 23 24 25 26 27 28
000
FTUS43 KDDC 151541 AAB
TAFHYS
TAF AMD
KHYS 151541Z 1516/1612 17013KT P6SM SCT050 SCT060
     FM151700 17015G23KT P6SM SCT200
     FM160000 16013G18KT P6SM SCT060
     FM160300 16013KT P6SM VCTS BKN060CB=

USA.gov is the U.S. government's official web portal to all federal, state and local government web resources and services.